Latest Weather Observations for Gold Coast Seaway

IDQ60801

Issued at 3:42 pm EST Tuesday 10 December 2019 (issued every 10 minutes, with the page automatically refreshed every 10 minutes)

About weather observations | Map of weather stations | Latest weather observations for QLD | Other Formats
Station Details ID: 040764 Name: GOLD COAST SEAWAY Lat: -27.94 Lon: 153.43 Height: 2.98 m
Data from the previous 72 hours. | See also: Recent months at Gold Coast Seaway
Date/Time
EST
Temp
°C
App
Temp
°C
Dew
Point
°C
Rel
Hum
%
Delta-T
°C
Wind Press
QNH
hPa
Press
MSL
hPa
Rain since
9am
mm
Dir  Spd
km/h
Gust
km/h
Spd
kts
Gust
kts
10/03:30pm 27.5 27.3 24.4 83 2.1 NNE 33 39 18 21 1012.8 1012.8 0.0
10/03:00pm 27.8 27.9 24.6 83 2.2 NNE 32 39 17 21 1013.2 1013.2 0.0
10/02:30pm 28.3 28.2 24.5 80 2.6 NNE 33 37 18 20 1013.5 1013.5 0.0
10/02:00pm 28.8 29.2 25.0 80 2.7 NNE 32 37 17 20 1013.8 1013.8 0.0
10/01:30pm 28.9 29.3 25.3 81 2.5 NNE 33 37 18 20 1014.2 1014.2 0.0
10/01:00pm 29.1 29.9 25.7 82 2.4 NNE 32 35 17 19 1014.7 1014.7 0.0
10/12:30pm 28.7 29.3 25.3 82 2.4 NNE 32 35 17 19 1015.1 1015.1 0.0
10/12:00pm 28.9 30.2 25.9 84 2.1 NE 30 33 16 18 1015.6 1015.6 0.0
10/11:30am 28.0 29.9 25.6 87 1.7 NE 26 30 14 16 1015.9 1015.9 0.0
10/11:00am 28.7 31.2 25.9 85 2.0 NE 24 30 13 16 1016.5 1016.5 0.0
10/10:30am 30.0 33.1 24.2 71 4.0 NNW 15 26 8 14 1017.0 1017.0 0.0
10/10:00am 28.8 31.5 24.1 76 3.3 NNW 17 24 9 13 1017.3 1017.3 0.0
10/09:30am 27.7 29.4 23.1 76 3.1 NW 19 22 10 12 1017.6 1017.6 0.0
10/09:00am 27.6 29.9 23.4 78 2.9 NNW 17 28 9 15 1017.6 1017.6 0.0
10/08:30am 27.1 29.9 23.6 81 2.4 NNW 15 26 8 14 1017.8 1017.8 0.0
10/08:00am 26.1 29.5 24.1 89 1.4 N 13 17 7 9 1017.8 1017.8 0.0
10/07:30am 25.4 29.2 24.0 92 1.0 N 11 15 6 8 1017.9 1017.9 0.0
10/07:00am 24.5 29.7 23.6 95 0.6 WNW 2 6 1 3 1017.9 1017.9 0.0
10/06:30am 23.6 28.5 23.6 100 0.0 WNW 4 7 2 4 1017.9 1017.9 0.0
10/06:00am 23.1 28.4 23.1 100 0.0 CALM 0 0 0 0 1017.9 1017.9 0.0
10/05:30am 22.3 27.2 22.3 100 0.0 CALM 0 0 0 0 1017.7 1017.7 0.0
10/05:00am 21.5 24.8 21.5 100 0.0 WNW 6 7 3 4 1017.6 1017.6 0.0
10/04:30am 21.4 25.1 21.4 100 0.0 WNW 4 7 2 4 1017.5 1017.5 0.0
10/04:00am 21.6 26.1 21.6 100 0.0 CALM 0 0 0 0 1017.4 1017.4 0.0
10/03:30am 21.5 25.9 21.3 99 0.1 CALM 0 0 0 0 1017.3 1017.3 0.0
10/03:00am 21.6 25.7 21.6 100 0.0 NNW 2 6 1 3 1017.2 1017.2 0.0
10/02:30am 22.1 26.5 22.1 100 0.0 NNW 2 7 1 4 1017.2 1017.2 0.0
10/02:00am 22.2 27.0 22.2 100 0.0 CALM 0 0 0 0 1017.4 1017.4 0.0
10/01:30am 22.7 27.8 22.7 100 0.0 CALM 0 0 0 0 1017.6 1017.6 0.0
10/01:00am 22.1 26.9 22.1 100 0.0 CALM 0 0 0 0 1017.9 1017.9 0.0
10/12:30am 22.7 27.8 22.7 100 0.0 CALM 0 0 0 0 1018.2 1018.2 0.0
10/12:00am 23.3 28.7 23.3 100 0.0 CALM 0 0 0 0 1018.5 1018.5 0.0
 
Date/Time
EST
Temp
°C
App
Temp
°C
Dew
Point
°C
Rel
Hum
%
Delta-T
°C
Wind Press
QNH
hPa
Press
MSL
hPa
Rain since
9am
mm
Dir  Spd
km/h
Gust
km/h
Spd
kts
Gust
kts
09/11:30pm 23.4 27.8 23.4 100 0.0 NNW 6 7 3 4 1018.9 1018.9 0.0
09/11:00pm 23.4 28.9 23.4 100 0.0 CALM 0 0 0 0 1019.1 1019.1 0.0
09/10:30pm 24.0 29.8 24.0 100 0.0 CALM 0 0 0 0 1019.3 1019.3 0.0
09/10:00pm 24.0 28.7 24.0 100 0.0 NNW 6 7 3 4 1019.6 1019.6 0.0
09/09:30pm 24.0 28.5 24.0 100 0.0 N 7 9 4 5 1019.7 1019.7 0.0
09/09:00pm 24.2 27.7 24.2 100 0.0 NNE 13 15 7 8 1019.6 1019.6 0.0
09/08:30pm 24.4 28.0 24.4 100 0.0 NE 13 15 7 8 1019.6 1019.6 0.0
09/08:00pm 24.5 27.8 24.5 100 0.0 NE 15 17 8 9 1019.5 1019.5 0.0
09/07:30pm 24.6 28.6 24.4 99 0.1 NE 11 13 6 7 1019.4 1019.4 0.0
09/07:00pm 24.7 28.8 24.5 99 0.1 NE 11 13 6 7 1019.3 1019.3 0.0
09/06:30pm 24.9 29.4 24.6 98 0.2 ENE 9 11 5 6 1019.2 1019.2 0.0
09/06:00pm 25.0 28.3 24.5 97 0.3 E 15 17 8 9 1019.0 1019.0 0.0
09/05:30pm 25.2 28.1 24.5 96 0.5 E 17 20 9 11 1018.8 1018.8 0.0
09/05:00pm 25.4 27.9 24.5 95 0.6 E 19 20 10 11 1018.7 1018.7 0.0
09/04:30pm 25.8 28.8 24.6 93 0.8 ESE 17 19 9 10 1018.8 1018.8 0.0
09/04:00pm 26.1 29.1 24.7 92 1.0 ESE 17 20 9 11 1018.9 1018.9 0.0
09/03:30pm 26.6 29.6 24.6 89 1.4 ESE 17 20 9 11 1019.0 1019.0 0.0
09/03:00pm 27.3 29.9 24.9 87 1.7 ESE 20 24 11 13 1019.1 1019.1 0.0
09/02:30pm 27.2 29.9 25.0 88 1.5 ESE 20 22 11 12 1019.5 1019.5 0.0
09/02:00pm 26.7 29.2 24.7 89 1.4 ESE 20 22 11 12 1019.9 1019.9 0.0
09/01:30pm 27.2 29.4 24.8 87 1.7 ESE 22 26 12 14 1020.0 1020.0 0.0
09/01:00pm 28.0 30.3 25.0 84 2.1 ESE 22 26 12 14 1020.3 1020.3 0.0
09/12:30pm 28.1 30.3 24.9 83 2.2 ESE 22 24 12 13 1020.3 1020.3 0.0
09/12:00pm 27.9 30.1 24.9 84 2.1 ESE 22 26 12 14 1020.6 1020.6 0.0
09/11:30am 27.7 29.5 24.9 85 2.0 SE 24 26 13 14 1020.9 1020.9 0.0
09/11:00am 28.1 31.3 24.9 83 2.2 SSE 17 22 9 12 1021.0 1021.0 0.0
09/10:30am 27.9 29.7 24.9 84 2.1 SSE 24 30 13 16 1021.2 1021.2 0.0
09/10:00am 27.4 28.6 24.5 84 2.0 SSE 26 30 14 16 1021.3 1021.3 0.0
09/09:30am 27.7 29.3 24.5 83 2.2 SSE 24 30 13 16 1021.3 1021.3 0.0
09/09:00am 27.0 28.2 23.9 83 2.1 SSE 24 30 13 16 1021.1 1021.1 0.0
09/08:30am 26.3 27.0 23.6 85 1.8 SSE 26 30 14 16 1020.9 1020.9 0.0
09/08:00am 26.1 26.8 23.6 86 1.7 SSE 26 30 14 16 1021.0 1021.0 0.0
09/07:30am 25.7 26.6 23.4 87 1.6 SSE 24 28 13 15 1020.9 1020.9 0.0
09/07:00am 25.0 26.1 23.1 89 1.3 SSE 22 28 12 15 1020.8 1020.8 0.0
09/06:30am 24.3 25.1 22.4 89 1.3 SSE 22 26 12 14 1020.7 1020.7 0.0
09/06:00am 23.7 24.6 22.0 90 1.1 S 20 24 11 13 1020.5 1020.5 0.0
09/05:30am 23.3 25.2 21.4 89 1.3 S 13 17 7 9 1020.2 1020.2 0.0
09/05:00am 23.0 25.5 21.1 89 1.2 SSW 9 13 5 7 1019.9 1019.9 0.0
09/04:30am 22.8 24.4 20.7 88 1.4 S 13 19 7 10 1019.5 1019.5 0.0
09/04:00am 22.8 24.9 20.9 89 1.2 SSW 11 15 6 8 1019.4 1019.4 0.0
09/03:30am 22.9 24.6 21.0 89 1.2 SSW 13 17 7 9 1019.4 1019.4 0.0
09/03:00am 22.7 24.1 21.0 90 1.1 S 15 19 8 10 1019.2 1019.2 0.0
09/02:30am 22.5 24.7 21.1 92 0.9 SSW 11 17 6 9 1019.1 1019.1 0.0
09/02:00am 22.7 24.4 21.0 90 1.1 S 13 17 7 9 1019.0 1019.0 0.0
09/01:30am 22.9 24.8 21.4 91 1.0 SSW 13 19 7 10 1019.2 1019.2 0.0
09/01:00am 22.9 25.3 21.5 92 0.9 SW 11 17 6 9 1019.4 1019.4 0.0
09/12:30am 23.0 25.3 22.0 94 0.7 SSW 13 19 7 10 1019.6 1019.6 0.0
09/12:00am 22.9 24.8 22.1 95 0.5 S 15 19 8 10 1019.9 1019.9 0.0
 
Date/Time
EST
Temp
°C
App
Temp
°C
Dew
Point
°C
Rel
Hum
%
Delta-T
°C
Wind Press
QNH
hPa
Press
MSL
hPa
Rain since
9am
mm
Dir  Spd
km/h
Gust
km/h
Spd
kts
Gust
kts
08/11:30pm 23.0 24.6 22.2 95 0.5 S 17 24 9 13 1020.0 1020.0 0.0
08/11:00pm 23.0 24.7 22.3 96 0.5 S 17 22 9 12 1020.3 1020.3 0.0
08/10:30pm 23.2 23.7 22.7 97 0.3 SSE 24 32 13 17 1020.0 1020.0 0.0
08/10:00pm 23.1 23.6 22.6 97 0.3 S 24 28 13 15 1020.2 1020.2 0.0
08/09:30pm 23.3 24.4 23.0 98 0.2 SSE 22 26 12 14 1020.1 1020.1 0.0
08/09:00pm 23.3 25.0 23.1 99 0.1 SSE 19 24 10 13 1020.0 1020.0 0.0
08/08:30pm 23.2 24.9 23.0 99 0.1 SSE 19 24 10 13 1019.8 1019.8 0.0
08/08:00pm 23.3 23.6 23.0 98 0.2 SSE 26 33 14 18 1019.4 1019.4 0.0
08/07:30pm 23.5 24.2 23.0 97 0.3 SE 24 30 13 16 1019.3 1019.3 0.0
08/07:00pm 23.6 23.5 22.9 96 0.5 SE 28 35 15 19 1018.9 1018.9 0.0
08/06:30pm 23.7 24.0 23.0 96 0.5 SE 26 32 14 17 1018.5 1018.5 0.0
08/06:00pm 23.9 23.9 23.0 95 0.6 SE 28 33 15 18 1017.9 1017.9 0.0
08/05:30pm 24.2 24.2 23.0 93 0.8 SE 28 32 15 17 1017.5 1017.5 0.0
08/05:00pm 24.5 24.0 22.9 91 1.1 SE 30 35 16 19 1016.8 1016.8 0.0
08/04:30pm 25.2 24.8 23.1 88 1.4 SSE 30 35 16 19 1016.2 1016.2 0.0
08/04:00pm 25.6 24.8 23.1 86 1.7 SE 32 39 17 21 1015.8 1015.8 0.0
08/03:30pm 26.0 24.7 23.1 84 2.0 SE 35 39 19 21 1015.8 1015.8 0.0
08/03:00pm 26.4 25.6 23.1 82 2.2 SE 32 35 17 19 1016.0 1016.0 0.0
08/02:30pm 27.1 26.6 23.6 81 2.4 SE 32 37 17 20 1016.0 1016.0 0.0
08/02:00pm 27.2 27.0 23.4 80 2.6 SE 30 35 16 19 1015.9 1015.9 0.0
08/01:30pm 27.2 26.5 23.2 79 2.7 SE 32 37 17 20 1016.0 1016.0 0.0
08/01:00pm 26.9 26.3 23.4 81 2.4 SE 32 35 17 19 1016.1 1016.1 0.0
08/12:30pm 27.5 27.7 23.5 79 2.7 SE 28 33 15 18 1016.3 1016.3 0.0
08/12:00pm 27.1 26.7 23.1 79 2.7 SE 30 35 16 19 1016.7 1016.7 0.0
08/11:30am 27.0 26.4 23.3 80 2.5 SE 32 33 17 18 1016.8 1016.8 0.0
08/11:00am 26.0 25.0 22.7 82 2.2 SE 32 37 17 20 1017.0 1017.0 0.0
08/10:30am 25.2 23.9 22.1 83 2.1 SE 32 37 17 20 1017.3 1017.3 0.0
08/10:00am 24.9 24.3 22.0 84 1.9 SE 28 33 15 18 1017.4 1017.4 0.0
08/09:30am 24.5 25.3 21.8 85 1.8 SE 20 26 11 14 1017.4 1017.4 0.0
08/09:00am 25.1 25.8 21.6 81 2.3 SSE 20 26 11 14 1017.4 1017.4 0.0
08/08:30am 25.3 25.3 21.6 80 2.5 SSE 24 30 13 16 1017.4 1017.4 0.0
08/08:00am 24.7 23.7 21.2 81 2.3 SSE 28 35 15 19 1017.3 1017.3 0.0
08/07:30am 24.4 23.2 21.5 84 1.9 S 30 33 16 18 1017.2 1017.2 0.0
08/07:00am 23.8 22.4 20.5 82 2.1 S 28 33 15 18 1017.0 1017.0 0.0
08/06:30am 23.3 21.1 20.4 84 1.9 S 32 37 17 20 1016.4 1016.4 0.0
08/06:00am 23.0 21.0 20.7 87 1.5 S 32 37 17 20 1016.0 1016.0 0.0
08/05:30am 22.3 21.7 20.6 90 1.1 S 24 30 13 16 1015.5 1015.5 0.0
08/05:00am 22.2 21.6 20.5 90 1.1 SSE 24 30 13 16 1014.9 1014.9 0.0
08/04:30am 22.2 21.6 20.5 90 1.1 S 24 28 13 15 1014.5 1014.5 0.0
08/04:00am 22.1 22.2 20.4 90 1.1 S 20 26 11 14 1014.2 1014.2 0.0
08/03:30am 22.0 22.3 20.5 91 1.0 SSE 19 24 10 13 1014.0 1014.0 0.0
08/03:00am 22.0 22.3 20.5 91 1.0 SSE 19 22 10 12 1014.0 1014.0 0.0
08/02:30am 22.1 22.5 20.7 92 0.9 SE 19 22 10 12 1013.9 1013.9 0.0
08/02:00am 22.1 22.6 20.9 93 0.8 SE 19 20 10 11 1013.7 1013.7 0.0
08/01:30am 21.8 21.7 20.8 94 0.6 SE 22 24 12 13 1013.3 1013.3 0.0
08/01:00am 21.8 22.7 20.8 94 0.6 SE 17 20 9 11 1013.4 1013.4 0.0
08/12:30am 22.1 22.5 20.7 92 0.9 SE 19 20 10 11 1013.3 1013.3 0.0
08/12:00am 22.1 22.4 20.4 90 1.1 SSE 19 24 10 13 1013.5 1013.5 0.0
 
Date/Time
EST
Temp
°C
App
Temp
°C
Dew
Point
°C
Rel
Hum
%
Delta-T
°C
Wind Press
QNH
hPa
Press
MSL
hPa
Rain since
9am
mm
Dir  Spd
km/h
Gust
km/h
Spd
kts
Gust
kts
07/11:30pm 22.2 21.7 20.7 91 1.0 SSE 24 28 13 15 1013.4 1013.4 0.0
07/11:00pm 22.4 22.0 21.0 92 0.9 SSE 24 32 13 17 1013.6 1013.6 0.0
07/10:30pm 22.5 21.4 21.1 92 0.9 SSE 28 32 15 17 1013.7 1013.7 0.0
07/10:00pm 22.6 21.7 21.4 93 0.8 SSE 28 33 15 18 1013.8 1013.8 0.0
07/09:30pm 22.7 21.6 21.7 94 0.7 SSE 30 35 16 19 1013.8 1013.8 0.0
07/09:00pm 22.8 21.7 21.8 94 0.7 SSE 30 35 16 19 1013.5 1013.5 0.0
07/08:30pm 22.9 22.6 21.9 94 0.7 SSE 26 30 14 16 1013.4 1013.4 0.0
07/08:00pm 23.1 23.0 22.3 95 0.5 SSE 26 32 14 17 1013.2 1013.2 0.0
07/07:30pm 23.2 23.6 22.4 95 0.5 SSE 24 28 13 15 1012.8 1012.8 0.0
07/07:00pm 23.3 23.0 22.5 95 0.5 SSE 28 33 15 18 1012.2 1012.2 0.0
07/06:30pm 23.6 23.3 22.6 94 0.7 SSE 28 33 15 18 1011.6 1011.6 0.0
07/06:00pm 23.9 23.3 22.7 93 0.8 SSE 30 35 16 19 1011.0 1011.0 0.0
07/05:30pm 24.2 23.7 22.8 92 0.9 SSE 30 35 16 19 1010.6 1010.6 0.0
07/05:00pm 24.7 24.3 23.1 91 1.1 SSE 30 33 16 18 1010.0 1010.0 0.0
07/04:30pm 25.1 24.8 23.2 89 1.3 SSE 30 33 16 18 1009.7 1009.7 0.0
07/04:00pm 25.7 26.0 23.6 88 1.4 SSE 28 32 15 17 1009.5 1009.5 0.0

Other formats

Comma delimited format used in spreadsheet applications
http://www.bom.gov.au/fwo/IDQ60801/IDQ60801.94580.axf

JavaScript Object Notation format (JSON) in row-major order
http://www.bom.gov.au/fwo/IDQ60801/IDQ60801.94580.json

Data quality

Most of these data are generated automatically and are frequently updated. Quality checks on data are not normally performed. It is possible for incorrect values to appear. Refer to information at About Latest Weather Observations and please check the disclaimer before using these data.